createdAt,value
2018-04-10T00:01:00.338Z,83.03
2018-04-10T00:02:08.393Z,82.90
2018-04-10T00:03:16.447Z,83.28
2018-04-10T00:04:24.522Z,83.47
2018-04-10T00:05:32.568Z,84.13
2018-04-10T00:06:40.644Z,83.94
2018-04-10T00:07:48.735Z,84.04
2018-04-10T00:08:56.772Z,84.33
2018-04-10T00:10:04.841Z,84.33
2018-04-10T00:11:12.913Z,83.47
2018-04-10T00:12:20.977Z,84.04
2018-04-10T00:13:29.010Z,84.33
2018-04-10T00:14:37.083Z,84.23
2018-04-10T00:15:45.151Z,84.23
2018-04-10T00:16:53.203Z,84.70
2018-04-10T00:18:01.263Z,84.66
2018-04-10T00:19:09.339Z,85.33
2018-04-10T00:20:17.397Z,85.71
2018-04-10T00:21:25.472Z,86.38
2018-04-10T00:22:33.525Z,86.61
2018-04-10T00:23:41.584Z,86.04
2018-04-10T00:24:49.664Z,86.70
2018-04-10T00:25:57.715Z,86.13
2018-04-10T00:27:05.797Z,86.42
2018-04-10T00:28:13.867Z,84.89
2018-04-10T00:29:21.907Z,84.70
2018-04-10T00:30:29.991Z,84.61
2018-04-10T00:31:38.043Z,85.08
2018-04-10T00:32:46.096Z,85.33
2018-04-10T00:33:54.171Z,85.80
2018-04-10T00:35:02.229Z,85.99
2018-04-10T00:36:10.296Z,85.14
2018-04-10T00:37:18.345Z,85.61
2018-04-10T00:38:26.415Z,85.42
2018-04-10T00:39:34.497Z,85.61
2018-04-10T00:40:42.531Z,85.24
2018-04-10T00:41:50.595Z,85.90
2018-04-10T00:42:58.664Z,85.80
2018-04-10T00:44:06.734Z,85.42
2018-04-10T00:45:14.795Z,86.09
2018-04-10T00:46:22.847Z,85.80
2018-04-10T00:47:30.906Z,86.28
2018-04-10T00:48:38.994Z,87.13
2018-04-10T00:49:47.057Z,87.23
2018-04-10T00:50:55.105Z,87.23
2018-04-10T00:52:03.169Z,87.04
2018-04-10T00:53:11.215Z,87.04
2018-04-10T00:54:19.302Z,86.76
2018-04-10T00:55:27.351Z,86.94
2018-04-10T00:56:35.438Z,86.76
2018-04-10T00:57:43.489Z,86.76
2018-04-10T00:58:51.523Z,87.28
2018-04-10T00:59:59.600Z,87.57
2018-04-10T01:01:07.692Z,87.76
2018-04-10T01:02:15.741Z,87.61
2018-04-10T01:03:23.802Z,88.71
2018-04-10T01:04:31.849Z,87.85
2018-04-10T01:05:39.932Z,87.57
2018-04-10T01:06:47.979Z,87.85
2018-04-10T01:07:56.047Z,88.33
2018-04-10T01:09:04.120Z,89.18
2018-04-10T01:10:12.168Z,89.99
2018-04-10T01:11:20.229Z,89.70
2018-04-10T01:12:28.303Z,89.23
2018-04-10T01:13:36.368Z,88.85
2018-04-10T01:14:44.425Z,87.76
2018-04-10T01:15:52.500Z,88.28
2018-04-10T01:17:00.588Z,88.75
2018-04-10T01:18:08.636Z,88.66
2018-04-10T01:19:16.682Z,88.94
2018-04-10T01:20:24.736Z,89.14
2018-04-10T01:21:32.793Z,89.42
2018-04-10T01:22:40.852Z,89.61
2018-04-10T01:23:48.918Z,89.04
2018-04-10T01:24:56.990Z,89.70
2018-04-10T01:26:05.064Z,89.89
2018-04-10T01:27:13.125Z,89.80
2018-04-10T01:28:21.153Z,89.80
2018-04-10T01:29:29.232Z,88.94
2018-04-10T01:30:37.302Z,89.61
2018-04-10T01:31:45.365Z,89.80
2018-04-10T01:32:53.417Z,90.66
2018-04-10T01:34:01.476Z,90.37
2018-04-10T01:35:09.555Z,89.70
2018-04-10T01:36:17.634Z,90.66
2018-04-10T01:37:25.691Z,90.37
2018-04-10T01:38:33.749Z,90.84
2018-04-10T01:39:41.800Z,91.17
2018-04-10T01:40:49.872Z,90.61
2018-04-10T01:41:57.920Z,90.99
2018-04-10T01:43:06.002Z,90.51
2018-04-10T01:44:14.062Z,90.61
2018-04-10T01:45:22.126Z,90.89
2018-04-10T01:46:30.189Z,90.89
2018-04-10T01:47:38.258Z,91.37
2018-04-10T01:48:46.310Z,91.37
2018-04-10T01:49:54.376Z,91.27
2018-04-10T01:51:02.436Z,90.70
2018-04-10T01:52:10.499Z,90.61
2018-04-10T01:53:18.571Z,90.70
2018-04-10T01:54:26.630Z,90.42
2018-04-10T01:55:34.694Z,90.61
2018-04-10T01:56:42.757Z,90.27
2018-04-10T01:57:50.811Z,90.56
2018-04-10T01:58:58.880Z,90.65
2018-04-10T02:00:06.945Z,90.70
2018-04-10T02:01:15.003Z,90.46
2018-04-10T02:02:23.105Z,90.36
2018-04-10T02:03:31.098Z,90.70
2018-04-10T02:04:39.200Z,90.80
2018-04-10T02:05:47.259Z,90.51
2018-04-10T02:06:55.319Z,90.61
2018-04-10T02:08:03.377Z,90.70
2018-04-10T02:09:11.438Z,90.51
2018-04-10T02:10:19.528Z,90.70
2018-04-10T02:11:27.567Z,90.61
2018-04-10T02:12:35.624Z,90.61
2018-04-10T02:13:43.699Z,90.61
2018-04-10T02:14:51.773Z,90.89
2018-04-10T02:15:59.807Z,90.99
2018-04-10T02:17:07.890Z,91.27
2018-04-10T02:18:15.955Z,91.08
2018-04-10T02:19:24.007Z,90.51
2018-04-10T02:20:32.067Z,90.70
2018-04-10T02:21:40.137Z,90.80
2018-04-10T02:22:48.204Z,90.61
2018-04-10T02:23:56.269Z,90.80
2018-04-10T02:25:04.320Z,90.22
2018-04-10T02:26:12.390Z,90.22
2018-04-10T02:27:20.460Z,89.94
2018-04-10T02:28:28.514Z,90.03
2018-04-10T02:29:36.593Z,90.70
2018-04-10T02:30:44.634Z,90.56
2018-04-10T02:31:52.707Z,90.66
2018-04-10T02:33:00.767Z,90.75
2018-04-10T02:34:08.833Z,90.94
2018-04-10T02:35:16.896Z,91.13
2018-04-10T02:36:24.963Z,91.42
2018-04-10T02:37:33.031Z,90.94
2018-04-10T02:38:41.052Z,90.94
2018-04-10T02:39:49.129Z,91.03
2018-04-10T02:40:57.208Z,91.13
2018-04-10T02:42:05.277Z,91.42
2018-04-10T02:43:13.334Z,91.32
2018-04-10T02:44:21.368Z,90.66
2018-04-10T02:45:29.469Z,90.66
2018-04-10T02:46:37.526Z,90.84
2018-04-10T02:47:45.581Z,90.80
2018-04-10T02:48:53.643Z,91.03
2018-04-10T02:50:01.693Z,90.94
2018-04-10T02:51:09.775Z,91.08
2018-04-10T02:52:17.838Z,91.28
2018-04-10T02:53:25.887Z,91.37
2018-04-10T02:54:33.956Z,91.08
2018-04-10T02:55:42.013Z,91.28
2018-04-10T02:56:50.084Z,92.22
2018-04-10T02:57:58.139Z,92.41
2018-04-10T02:59:06.214Z,91.75
2018-04-10T03:00:14.273Z,91.56
2018-04-10T03:01:22.373Z,91.56
2018-04-10T03:02:30.393Z,91.28
2018-04-10T03:03:38.457Z,91.28
2018-04-10T03:04:46.519Z,91.56
2018-04-10T03:05:54.582Z,91.75
2018-04-10T03:07:02.637Z,91.37
2018-04-10T03:08:10.696Z,91.28
2018-04-10T03:09:18.772Z,91.89
2018-04-10T03:10:26.834Z,92.66
2018-04-10T03:11:34.894Z,92.94
2018-04-10T03:12:42.963Z,92.18
2018-04-10T03:13:50.999Z,93.13
2018-04-10T03:14:59.074Z,92.08
2018-04-10T03:16:07.142Z,92.08
2018-04-10T03:17:15.209Z,91.42
2018-04-10T03:18:23.270Z,92.27
2018-04-10T03:19:31.308Z,92.85
2018-04-10T03:20:39.387Z,93.89
2018-04-10T03:21:47.446Z,93.89
2018-04-10T03:22:55.521Z,93.89
2018-04-10T03:24:03.578Z,93.70
2018-04-10T03:25:11.619Z,92.94
2018-04-10T03:26:19.695Z,92.85
2018-04-10T03:27:27.757Z,95.65
2018-04-10T03:28:35.851Z,94.98
2018-04-10T03:29:43.884Z,93.04
2018-04-10T03:30:51.953Z,91.89
2018-04-10T03:31:59.998Z,92.80
2018-04-10T03:33:08.077Z,93.04
2018-04-10T03:34:16.113Z,94.23
2018-04-10T03:35:24.184Z,94.51
2018-04-10T03:36:32.265Z,94.32
2018-04-10T03:37:40.315Z,95.08
2018-04-10T03:38:48.377Z,95.27
2018-04-10T03:39:56.455Z,94.98
2018-04-10T03:41:04.516Z,96.31
2018-04-10T03:42:12.552Z,96.12
2018-04-10T03:43:20.618Z,95.12
2018-04-10T03:44:28.689Z,95.55
2018-04-10T03:45:36.746Z,94.93
2018-04-10T03:46:44.809Z,95.32
2018-04-10T03:47:52.891Z,95.41
2018-04-10T03:49:00.925Z,95.41
2018-04-10T03:50:09.004Z,96.26
2018-04-10T03:51:17.067Z,96.36
2018-04-10T03:52:25.117Z,96.74
2018-04-10T03:53:33.197Z,97.12
2018-04-10T03:54:41.210Z,97.69
2018-04-10T03:55:49.340Z,97.78
2018-04-10T03:56:57.377Z,96.93
2018-04-10T03:58:05.441Z,96.98
2018-04-10T03:59:13.484Z,96.31
2018-04-10T04:00:21.518Z,95.46
2018-04-10T04:01:29.620Z,95.75
2018-04-10T04:02:37.668Z,95.65
2018-04-10T04:03:45.742Z,95.94
2018-04-10T04:04:53.802Z,96.50
2018-04-10T04:06:01.853Z,95.36
2018-04-10T04:07:09.935Z,95.36
2018-04-10T04:08:17.981Z,94.32
2018-04-10T04:09:26.029Z,95.56
2018-04-10T04:10:34.134Z,94.42
2018-04-10T04:11:42.172Z,93.75
2018-04-10T04:12:50.654Z,94.42
2018-04-10T04:13:58.287Z,95.08
2018-04-10T04:15:06.362Z,94.79
2018-04-10T04:16:14.416Z,94.60
2018-04-10T04:17:22.475Z,94.22
2018-04-10T04:18:30.542Z,94.60
2018-04-10T04:19:38.595Z,94.79
2018-04-10T04:20:46.669Z,94.79
2018-04-10T04:21:54.726Z,95.36
2018-04-10T04:23:02.783Z,95.36
2018-04-10T04:24:10.823Z,94.79
2018-04-10T04:25:18.899Z,95.17
2018-04-10T04:26:26.970Z,94.56
2018-04-10T04:27:35.041Z,94.37
2018-04-10T04:28:43.097Z,93.89
2018-04-10T04:29:51.836Z,93.84
2018-04-10T04:30:59.223Z,94.13
2018-04-10T04:32:07.277Z,93.89
2018-04-10T04:33:15.354Z,94.42
2018-04-10T04:34:23.404Z,93.70
2018-04-10T04:35:31.799Z,95.03
2018-04-10T04:36:39.523Z,94.37
2018-04-10T04:37:47.590Z,93.94
2018-04-10T04:38:55.646Z,93.84
2018-04-10T04:40:03.707Z,94.98
2018-04-10T04:41:11.764Z,94.51
2018-04-10T04:42:20.453Z,94.60
2018-04-10T04:43:27.903Z,94.89
2018-04-10T04:44:35.970Z,94.32
2018-04-10T04:45:44.023Z,95.27
2018-04-10T04:46:52.096Z,95.08
2018-04-10T04:48:00.156Z,94.13
2018-04-10T04:49:08.219Z,90.61
2018-04-10T04:50:16.291Z,90.52
2018-04-10T04:51:24.385Z,90.14
2018-04-10T04:52:32.404Z,90.80
2018-04-10T04:53:40.474Z,90.89
2018-04-10T04:54:48.544Z,91.56
2018-04-10T04:55:56.588Z,93.08
2018-04-10T04:57:04.657Z,94.51
2018-04-10T04:58:12.731Z,94.79
2018-04-10T04:59:20.794Z,94.13
2018-04-10T05:00:29.776Z,93.84
2018-04-10T05:01:36.905Z,93.65
2018-04-10T05:02:44.973Z,92.99
2018-04-10T05:03:53.021Z,93.84
2018-04-10T05:05:01.075Z,92.99
2018-04-10T05:06:09.162Z,93.65
2018-04-10T05:07:17.226Z,92.99
2018-04-10T05:08:25.320Z,93.37
2018-04-10T05:09:33.343Z,92.13
2018-04-10T05:10:41.387Z,91.85
2018-04-10T05:11:49.557Z,91.47
2018-04-10T05:12:57.560Z,92.13
2018-04-10T05:14:05.596Z,92.51
2018-04-10T05:15:13.663Z,92.03
2018-04-10T05:16:21.739Z,92.32
2018-04-10T05:17:29.790Z,93.18
2018-04-10T05:18:37.849Z,92.80
2018-04-10T05:19:45.906Z,92.51
2018-04-10T05:20:53.980Z,92.32
2018-04-10T05:22:02.045Z,92.13
2018-04-10T05:23:10.108Z,91.94
2018-04-10T05:24:18.200Z,93.04
2018-04-10T05:25:26.223Z,93.18
2018-04-10T05:26:34.301Z,91.85
2018-04-10T05:27:42.352Z,92.22
2018-04-10T05:28:50.413Z,92.56
2018-04-10T05:29:58.493Z,92.99
2018-04-10T05:31:06.551Z,93.37
2018-04-10T05:32:14.601Z,93.46
2018-04-10T05:33:22.669Z,93.65
2018-04-10T05:34:30.723Z,93.18
2018-04-10T05:35:38.805Z,93.55
2018-04-10T05:36:46.863Z,93.37
2018-04-10T05:37:54.911Z,93.37
2018-04-10T05:39:02.979Z,92.80
2018-04-10T05:40:11.015Z,92.89
2018-04-10T05:41:19.103Z,93.08
2018-04-10T05:42:27.168Z,93.55
2018-04-10T05:43:35.235Z,93.08
2018-04-10T05:44:43.297Z,93.18
2018-04-10T05:45:51.332Z,92.89
2018-04-10T05:46:59.452Z,93.27
2018-04-10T05:48:07.486Z,92.94
2018-04-10T05:49:15.554Z,93.18
2018-04-10T05:50:23.623Z,93.13
2018-04-10T05:51:31.671Z,92.27
2018-04-10T05:52:39.735Z,91.22
2018-04-10T05:53:47.794Z,92.36
2018-04-10T05:54:55.879Z,92.46
2018-04-10T05:56:03.917Z,91.13
2018-04-10T05:57:11.985Z,90.94
2018-04-10T05:58:20.075Z,91.80
2018-04-10T05:59:28.113Z,90.84
2018-04-10T06:00:36.187Z,90.75
2018-04-10T06:01:44.246Z,90.42
2018-04-10T06:02:52.304Z,89.08
2018-04-10T06:04:00.387Z,89.08
2018-04-10T06:05:08.450Z,88.32
2018-04-10T06:06:16.505Z,88.37
2018-04-10T06:07:24.575Z,87.60
2018-04-10T06:08:32.631Z,87.51
2018-04-10T06:09:40.689Z,87.70
2018-04-10T06:10:48.758Z,86.75
2018-04-10T06:11:56.826Z,86.18
2018-04-10T06:13:04.880Z,85.80
2018-04-10T06:14:12.945Z,84.65
2018-04-10T06:15:20.995Z,84.50
2018-04-10T06:16:29.076Z,84.22
2018-04-10T06:17:37.142Z,83.45
2018-04-10T06:18:45.209Z,83.17
2018-04-10T06:19:53.275Z,83.17
2018-04-10T06:21:01.310Z,81.78
2018-04-10T06:22:09.406Z,82.17
2018-04-10T06:23:17.454Z,81.30
2018-04-10T06:24:25.522Z,80.83
2018-04-10T06:25:33.617Z,80.54
2018-04-10T06:26:41.646Z,81.12
2018-04-10T06:27:49.739Z,80.73
2018-04-10T06:28:57.792Z,79.35
2018-04-10T06:30:05.855Z,78.30
2018-04-10T06:31:13.916Z,77.91
2018-04-10T06:32:21.975Z,78.96
2018-04-10T06:33:30.035Z,77.44
2018-04-10T06:34:38.126Z,76.67
2018-04-10T06:35:46.169Z,77.44
2018-04-10T06:36:54.248Z,76.96
2018-04-10T06:38:02.304Z,76.62
2018-04-10T06:39:10.378Z,76.62
2018-04-10T06:40:18.452Z,75.76
2018-04-10T06:41:26.503Z,75.85
2018-04-10T06:42:34.575Z,76.33
2018-04-10T06:43:42.639Z,75.09
2018-04-10T06:44:50.694Z,74.90
2018-04-10T06:45:58.774Z,75.85
2018-04-10T06:47:06.839Z,75.95
2018-04-10T06:48:14.897Z,75.09
2018-04-10T06:49:22.958Z,75.28
2018-04-10T06:50:31.010Z,75.09
2018-04-10T06:51:39.091Z,75.09
2018-04-10T06:52:47.177Z,75.57
2018-04-10T06:53:55.236Z,74.80
2018-04-10T06:55:03.300Z,73.50
2018-04-10T06:56:11.338Z,73.60
2018-04-10T06:57:19.430Z,72.93
2018-04-10T06:58:27.498Z,73.12
2018-04-10T06:59:35.559Z,73.32
2018-04-10T07:00:43.630Z,73.54
2018-04-10T07:01:51.669Z,73.16
2018-04-10T07:02:59.758Z,71.63
2018-04-10T07:04:07.832Z,70.39
2018-04-10T07:05:15.908Z,70.67
2018-04-10T07:06:23.976Z,71.15
2018-04-10T07:07:32.046Z,69.56
2018-04-10T07:08:40.094Z,70.58
2018-04-10T07:09:48.162Z,70.52
2018-04-10T07:10:56.233Z,71.57
2018-04-10T07:12:04.284Z,70.33
2018-04-10T07:13:12.365Z,70.90
2018-04-10T07:14:20.441Z,70.90
2018-04-10T07:15:28.529Z,69.53
2018-04-10T07:16:36.571Z,70.20
2018-04-10T07:17:44.640Z,70.67
2018-04-10T07:18:52.703Z,70.29
2018-04-10T07:20:00.769Z,69.91
2018-04-10T07:21:08.848Z,69.91
2018-04-10T07:22:16.915Z,70.20
2018-04-10T07:23:24.957Z,69.34
2018-04-10T07:24:33.036Z,68.13
2018-04-10T07:25:41.082Z,67.36
2018-04-10T07:26:49.229Z,67.08
2018-04-10T07:27:57.246Z,67.94
2018-04-10T07:29:05.312Z,66.54
2018-04-10T07:30:13.390Z,67.21
2018-04-10T07:31:21.419Z,67.40
2018-04-10T07:32:29.505Z,66.73
2018-04-10T07:33:37.587Z,65.39
2018-04-10T07:34:45.655Z,65.30
2018-04-10T07:35:53.727Z,65.58
2018-04-10T07:37:01.777Z,64.53
2018-04-10T07:38:09.860Z,65.01
2018-04-10T07:39:17.917Z,64.91
2018-04-10T07:40:25.995Z,65.87
2018-04-10T07:41:34.077Z,65.01
2018-04-10T07:42:42.131Z,65.97
2018-04-10T07:43:50.199Z,65.39
2018-04-10T07:44:58.269Z,64.75
2018-04-10T07:46:06.334Z,64.34
2018-04-10T07:47:14.406Z,64.82
2018-04-10T07:48:22.472Z,64.82
2018-04-10T07:49:30.539Z,64.95
2018-04-10T07:50:38.624Z,66.09
2018-04-10T07:51:46.683Z,65.90
2018-04-10T07:52:54.748Z,63.23
2018-04-10T07:54:02.817Z,61.91
2018-04-10T07:55:10.897Z,62.74
2018-04-10T07:56:18.961Z,62.11
2018-04-10T07:57:27.024Z,60.89
2018-04-10T07:58:35.138Z,61.08
2018-04-10T07:59:43.188Z,61.63
2018-04-10T08:00:51.255Z,60.70
2018-04-10T08:01:59.307Z,61.05
2018-04-10T08:03:07.370Z,63.03
2018-04-10T08:04:15.459Z,62.65
2018-04-10T08:05:23.534Z,63.89
2018-04-10T08:06:31.580Z,63.45
2018-04-10T08:07:39.664Z,62.68
2018-04-10T08:08:47.737Z,60.70
2018-04-10T08:09:55.804Z,61.28
2018-04-10T08:11:03.869Z,61.08
2018-04-10T08:12:11.951Z,59.65
2018-04-10T08:13:20.018Z,59.94
2018-04-10T08:14:28.098Z,60.80
2018-04-10T08:15:36.172Z,58.44
2018-04-10T08:16:44.223Z,57.86
2018-04-10T08:17:52.297Z,59.39
2018-04-10T08:19:00.357Z,58.62
2018-04-10T08:20:08.440Z,59.17
2018-04-10T08:21:16.515Z,58.62
2018-04-10T08:22:24.589Z,60.25
2018-04-10T08:23:32.660Z,57.95
2018-04-10T08:24:40.720Z,57.95
2018-04-10T08:25:48.793Z,60.16
2018-04-10T08:26:56.870Z,61.31
2018-04-10T08:28:04.941Z,58.91
2018-04-10T08:29:13.018Z,58.34
2018-04-10T08:30:21.059Z,59.08
2018-04-10T08:31:29.162Z,59.08
2018-04-10T08:32:37.231Z,59.27
2018-04-10T08:33:45.298Z,58.15
2018-04-10T08:34:53.357Z,58.72
2018-04-10T08:36:01.418Z,57.86
2018-04-10T08:37:09.507Z,58.88
2018-04-10T08:38:17.583Z,57.86
2018-04-10T08:39:25.654Z,57.76
2018-04-10T08:40:33.712Z,57.67
2018-04-10T08:41:41.806Z,57.95
2018-04-10T08:42:49.857Z,56.54
2018-04-10T08:43:57.942Z,58.17
2018-04-10T08:45:06.016Z,55.80
2018-04-10T08:46:14.085Z,56.48
2018-04-10T08:47:22.159Z,57.60
2018-04-10T08:48:30.236Z,55.62
2018-04-10T08:49:38.316Z,56.35
2018-04-10T08:50:46.376Z,57.31
2018-04-10T08:51:54.441Z,57.86
2018-04-10T08:53:02.518Z,57.86
2018-04-10T08:54:10.590Z,58.05
2018-04-10T08:55:18.663Z,58.53
2018-04-10T08:56:26.722Z,58.62
2018-04-10T08:57:34.804Z,57.76
2018-04-10T08:58:42.861Z,57.28
2018-04-10T08:59:50.928Z,58.22
2018-04-10T09:00:59.008Z,58.40
2018-04-10T09:02:07.094Z,59.08
2018-04-10T09:03:15.162Z,58.02
2018-04-10T09:04:23.233Z,57.64
2018-04-10T09:05:31.275Z,57.83
2018-04-10T09:06:39.371Z,59.55
2018-04-10T09:07:47.438Z,58.40
2018-04-10T09:08:55.490Z,59.65
2018-04-10T09:10:03.563Z,58.69
2018-04-10T09:11:11.641Z,57.35
2018-04-10T09:12:19.723Z,56.97
2018-04-10T09:13:27.804Z,60.13
2018-04-10T09:14:35.864Z,59.11
2018-04-10T09:15:43.903Z,61.02
2018-04-10T09:16:51.995Z,61.50
2018-04-10T09:18:00.071Z,61.40
2018-04-10T09:19:08.126Z,57.89
2018-04-10T09:20:16.208Z,55.78
2018-04-10T09:21:24.276Z,57.79
2018-04-10T09:22:32.338Z,58.37
2018-04-10T09:23:40.402Z,55.56
2018-04-10T09:24:48.489Z,55.08
2018-04-10T09:25:56.560Z,57.09
2018-04-10T09:27:04.623Z,56.32
2018-04-10T09:28:12.685Z,56.81
2018-04-10T09:29:20.752Z,56.97
2018-04-10T09:30:28.824Z,56.77
2018-04-10T09:31:36.900Z,57.64
2018-04-10T09:32:44.965Z,58.44
2018-04-10T09:33:53.018Z,56.81
2018-04-10T09:35:01.074Z,57.67
2018-04-10T09:36:09.161Z,58.15
2018-04-10T09:37:17.237Z,58.37
2018-04-10T09:38:25.306Z,57.72
2018-04-10T09:39:33.382Z,55.23
2018-04-10T09:40:41.417Z,57.72
2018-04-10T09:41:49.518Z,53.24
2018-04-10T09:42:57.586Z,55.26
2018-04-10T09:44:05.645Z,58.62
2018-04-10T09:45:13.717Z,52.09
2018-04-10T09:46:21.781Z,53.34
2018-04-10T09:47:29.864Z,51.51
2018-04-10T09:48:37.925Z,52.86
2018-04-10T09:49:46.000Z,56.70
2018-04-10T09:50:54.061Z,57.65
2018-04-10T09:52:02.128Z,55.93
2018-04-10T09:53:10.213Z,54.30
2018-04-10T09:54:18.277Z,52.19
2018-04-10T09:55:26.352Z,51.51
2018-04-10T09:56:34.427Z,53.24
2018-04-10T09:57:42.480Z,51.04
2018-04-10T09:58:50.555Z,52.76
2018-04-10T09:59:58.632Z,53.72
2018-04-10T10:01:06.696Z,56.79
2018-04-10T10:02:14.763Z,55.07
2018-04-10T10:03:22.862Z,53.44
2018-04-10T10:04:30.900Z,56.89
2018-04-10T10:05:38.977Z,56.34
2018-04-10T10:06:47.048Z,55.10
2018-04-10T10:07:55.119Z,55.77
2018-04-10T10:09:03.189Z,55.22
2018-04-10T10:10:11.228Z,54.74
2018-04-10T10:11:19.312Z,52.91
2018-04-10T10:12:27.369Z,50.13
2018-04-10T10:13:35.456Z,50.23
2018-04-10T10:14:43.546Z,51.47
2018-04-10T10:15:51.576Z,50.32
2018-04-10T10:16:59.668Z,52.62
2018-04-10T10:18:07.745Z,50.61
2018-04-10T10:19:15.831Z,50.03
2018-04-10T10:20:23.886Z,51.09
2018-04-10T10:21:31.949Z,50.13
2018-04-10T10:22:40.006Z,52.81
2018-04-10T10:23:48.123Z,53.01
2018-04-10T10:24:56.147Z,53.13
2018-04-10T10:26:04.229Z,53.70
2018-04-10T10:27:12.295Z,53.23
2018-04-10T10:28:20.364Z,51.91
2018-04-10T10:29:28.432Z,54.60
2018-04-10T10:30:36.508Z,53.83
2018-04-10T10:31:44.589Z,54.02
2018-04-10T10:32:52.650Z,51.55
2018-04-10T10:34:00.711Z,53.09
2018-04-10T10:35:08.777Z,45.59
2018-04-10T10:36:16.854Z,50.30
2018-04-10T10:37:24.928Z,43.66
2018-04-10T10:38:33.032Z,46.53
2018-04-10T10:39:41.036Z,47.30
2018-04-10T10:40:49.155Z,49.22
2018-04-10T10:41:57.241Z,52.32
2018-04-10T10:43:05.270Z,46.84
2018-04-10T10:44:13.343Z,47.13
2018-04-10T10:45:21.387Z,45.49
2018-04-10T10:46:29.493Z,45.37
2018-04-10T10:47:37.554Z,44.89
2018-04-10T10:48:45.615Z,51.69
2018-04-10T10:49:53.704Z,53.06
2018-04-10T10:51:01.742Z,50.95
2018-04-10T10:52:09.827Z,52.00
2018-04-10T10:53:17.909Z,50.18
2018-04-10T10:54:25.970Z,45.08
2018-04-10T10:55:34.037Z,46.02
2018-04-10T10:56:42.102Z,52.65
2018-04-10T10:57:50.188Z,49.19
2018-04-10T10:58:58.252Z,49.51
2018-04-10T11:00:06.327Z,52.39
2018-04-10T11:01:14.409Z,53.35
2018-04-10T11:02:22.458Z,50.08
2018-04-10T11:03:30.529Z,44.34
2018-04-10T11:04:38.607Z,44.12
2018-04-10T11:05:46.669Z,44.79
2018-04-10T11:06:54.735Z,45.28
2018-04-10T11:08:02.822Z,45.47
2018-04-10T11:09:10.877Z,47.49
2018-04-10T11:10:18.960Z,50.66
2018-04-10T11:11:27.030Z,44.99
2018-04-10T11:12:35.095Z,45.28
2018-04-10T11:13:43.150Z,44.77
2018-04-10T11:14:51.208Z,46.21
2018-04-10T11:15:59.301Z,45.06
2018-04-10T11:17:07.382Z,46.23
2018-04-10T11:18:15.458Z,46.72
2018-04-10T11:19:23.515Z,44.70
2018-04-10T11:20:31.561Z,45.56
2018-04-10T11:21:39.655Z,46.74
2018-04-10T11:22:47.719Z,49.24
2018-04-10T11:23:55.809Z,44.14
2018-04-10T11:25:03.879Z,44.35
2018-04-10T11:26:11.951Z,41.95
2018-04-10T11:27:20.015Z,43.11
2018-04-10T11:28:28.093Z,48.95
2018-04-10T11:29:36.148Z,49.33
2018-04-10T11:30:44.242Z,48.59
2018-04-10T11:31:52.301Z,47.53
2018-04-10T11:33:00.353Z,41.49
2018-04-10T11:34:08.425Z,43.28
2018-04-10T11:35:16.504Z,50.68
2018-04-10T11:36:24.572Z,48.49
2018-04-10T11:37:32.656Z,48.21
2018-04-10T11:38:40.718Z,42.16
2018-04-10T11:39:48.802Z,44.35
2018-04-10T11:40:56.849Z,46.47
2018-04-10T11:42:04.919Z,41.59
2018-04-10T11:43:12.998Z,42.33
2018-04-10T11:44:21.052Z,42.24
2018-04-10T11:45:29.134Z,42.05
2018-04-10T11:46:37.216Z,42.33
2018-04-10T11:47:45.280Z,41.66
2018-04-10T11:48:53.351Z,43.18
2018-04-10T11:50:01.396Z,42.22
2018-04-10T11:51:09.500Z,42.82
2018-04-10T11:52:17.573Z,41.18
2018-04-10T11:53:25.640Z,41.38
2018-04-10T11:54:33.702Z,42.41
2018-04-10T11:55:41.775Z,46.36
2018-04-10T11:56:49.850Z,42.33
2018-04-10T11:57:57.915Z,41.56
2018-04-10T11:59:05.982Z,40.89
2018-04-10T12:00:14.067Z,42.22
2018-04-10T12:01:22.126Z,37.22
2018-04-10T12:02:30.213Z,39.33
2018-04-10T12:03:38.273Z,43.20
2018-04-10T12:04:46.352Z,41.38
2018-04-10T12:05:54.419Z,45.05
2018-04-10T12:07:02.488Z,40.07
2018-04-10T12:08:10.563Z,42.19
2018-04-10T12:09:18.624Z,41.34
2018-04-10T12:10:26.708Z,42.30
2018-04-10T12:11:34.779Z,39.89
2018-04-10T12:12:42.859Z,43.17
2018-04-10T12:13:50.897Z,41.14
2018-04-10T12:14:58.995Z,41.32
2018-04-10T12:16:07.092Z,41.41
2018-04-10T12:17:15.140Z,38.62
2018-04-10T12:18:23.204Z,36.02
2018-04-10T12:19:31.256Z,35.71
2018-04-10T12:20:39.358Z,33.81
2018-04-10T12:21:47.415Z,33.69
2018-04-10T12:22:55.484Z,33.87
2018-04-10T12:24:03.558Z,34.64
2018-04-10T12:25:11.618Z,34.74
2018-04-10T12:26:19.694Z,35.97
2018-04-10T12:27:27.783Z,39.64
2018-04-10T12:28:35.847Z,44.35
2018-04-10T12:29:43.913Z,40.34
2018-04-10T12:30:52.001Z,37.83
2018-04-10T12:32:00.627Z,39.56
2018-04-10T12:33:08.139Z,43.90
2018-04-10T12:34:16.204Z,43.71
2018-04-10T12:35:24.288Z,43.92
2018-04-10T12:36:32.347Z,41.05
2018-04-10T12:37:40.408Z,41.53
2018-04-10T12:38:48.485Z,34.40
2018-04-10T12:39:56.562Z,34.98
2018-04-10T12:41:04.623Z,36.11
2018-04-10T12:42:12.702Z,36.69
2018-04-10T12:43:20.779Z,40.63
2018-04-10T12:44:28.846Z,40.63
2018-04-10T12:45:36.919Z,39.47
2018-04-10T12:46:45.002Z,37.95
2018-04-10T12:47:53.060Z,38.83
2018-04-10T12:49:01.128Z,36.52
2018-04-10T12:50:09.205Z,39.12
2018-04-10T12:51:17.267Z,33.34
2018-04-10T12:52:25.329Z,32.86
2018-04-10T12:53:33.413Z,37.56
2018-04-10T12:54:41.458Z,39.41
2018-04-10T12:55:49.559Z,36.33
2018-04-10T12:56:57.649Z,34.40
2018-04-10T12:58:05.700Z,34.59
2018-04-10T12:59:13.766Z,34.11
2018-04-10T13:00:21.839Z,35.27
2018-04-10T13:01:29.912Z,36.52
2018-04-10T13:02:37.992Z,36.52
2018-04-10T13:03:46.067Z,36.83
2018-04-10T13:04:54.123Z,35.00
2018-04-10T13:06:02.201Z,37.21
2018-04-10T13:07:10.269Z,33.65
2018-04-10T13:08:18.345Z,32.20
2018-04-10T13:09:26.415Z,33.07
2018-04-10T13:10:34.503Z,33.45
2018-04-10T13:11:42.561Z,29.89
2018-04-10T13:12:50.636Z,33.36
2018-04-10T13:13:58.745Z,36.06
2018-04-10T13:15:06.759Z,32.86
2018-04-10T13:16:14.844Z,31.22
2018-04-10T13:17:22.920Z,29.77
2018-04-10T13:18:30.968Z,33.33
2018-04-10T13:19:39.052Z,33.12
2018-04-10T13:20:47.131Z,32.82
2018-04-10T13:21:55.198Z,33.12
2018-04-10T13:23:03.275Z,32.44
2018-04-10T13:24:11.334Z,33.79
2018-04-10T13:25:19.418Z,38.78
2018-04-10T13:26:27.503Z,38.10
2018-04-10T13:27:35.563Z,42.26
2018-04-10T13:28:43.627Z,36.00
2018-04-10T13:29:51.672Z,37.35
2018-04-10T13:30:59.780Z,31.38
2018-04-10T13:32:07.843Z,33.39
2018-04-10T13:33:15.915Z,34.53
2018-04-10T13:34:23.984Z,35.20
2018-04-10T13:35:32.059Z,38.28
2018-04-10T13:36:40.128Z,39.12
2018-04-10T13:37:48.198Z,34.41
2018-04-10T13:38:56.264Z,36.91
2018-04-10T13:40:04.353Z,36.05
2018-04-10T13:41:12.408Z,37.30
2018-04-10T13:42:20.482Z,37.39
2018-04-10T13:43:28.555Z,39.12
2018-04-10T13:44:36.633Z,35.95
2018-04-10T13:45:44.690Z,38.07
2018-04-10T13:46:52.769Z,38.74
2018-04-10T13:48:00.822Z,40.85
2018-04-10T13:49:08.906Z,42.20
2018-04-10T13:50:16.984Z,44.41
2018-04-10T13:51:25.044Z,45.28
2018-04-10T13:52:33.119Z,44.79
2018-04-10T13:53:41.176Z,45.95
2018-04-10T13:54:49.251Z,45.95
2018-04-10T13:55:57.329Z,46.06
2018-04-10T13:57:05.417Z,45.76
2018-04-10T13:58:13.466Z,46.72
2018-04-10T13:59:21.512Z,46.62
2018-04-10T14:00:29.632Z,47.10
2018-04-10T14:01:37.693Z,47.77
2018-04-10T14:02:45.758Z,47.97
2018-04-10T14:03:53.813Z,47.77
2018-04-10T14:05:01.870Z,47.49
2018-04-10T14:06:09.970Z,47.68
2018-04-10T14:07:18.028Z,47.58
2018-04-10T14:08:26.097Z,48.35
2018-04-10T14:09:34.169Z,47.68
2018-04-10T14:10:42.239Z,47.27
2018-04-10T14:11:50.310Z,48.23
2018-04-10T14:12:58.377Z,48.49
2018-04-10T14:14:06.459Z,48.71
2018-04-10T14:15:14.504Z,48.52
2018-04-10T14:16:22.591Z,47.85
2018-04-10T14:17:30.655Z,47.75
2018-04-10T14:18:38.729Z,47.66
2018-04-10T14:19:46.823Z,48.23
2018-04-10T14:20:54.850Z,47.75
2018-04-10T14:22:02.931Z,48.59
2018-04-10T14:23:10.985Z,49.46
2018-04-10T14:24:19.082Z,49.17
2018-04-10T14:25:27.142Z,48.88
2018-04-10T14:26:35.221Z,49.36
2018-04-10T14:27:43.286Z,49.46
2018-04-10T14:28:51.336Z,49.55
2018-04-10T14:29:59.414Z,49.65
2018-04-10T14:31:07.500Z,49.26
2018-04-10T14:32:15.566Z,50.10
2018-04-10T14:33:23.627Z,50.10
2018-04-10T14:34:31.693Z,50.87
2018-04-10T14:35:39.771Z,51.93
2018-04-10T14:36:47.852Z,51.73